sensor_id;sensor_type;location;lat;lon;timestamp;temperature;humidity
3086;DHT22;52812;48.960;9.108;2023-12-04T00:00:35;-4.70;99.90
3086;DHT22;52812;48.960;9.108;2023-12-04T00:03:00;-4.70;99.90
3086;DHT22;52812;48.960;9.108;2023-12-04T00:05:26;-4.70;99.90
3086;DHT22;52812;48.960;9.108;2023-12-04T00:07:51;-4.70;99.90
3086;DHT22;52812;48.960;9.108;2023-12-04T00:10:17;-4.80;99.90
3086;DHT22;52812;48.960;9.108;2023-12-04T00:12:42;-4.80;99.90
3086;DHT22;52812;48.960;9.108;2023-12-04T00:15:08;-4.70;99.90
3086;DHT22;52812;48.960;9.108;2023-12-04T00:17:34;-4.70;99.90
3086;DHT22;52812;48.960;9.108;2023-12-04T00:20:00;-4.80;99.90
3086;DHT22;52812;48.960;9.108;2023-12-04T00:22:25;-4.80;99.90
3086;DHT22;52812;48.960;9.108;2023-12-04T00:24:51;-4.80;99.90
3086;DHT22;52812;48.960;9.108;2023-12-04T00:27:16;-4.80;99.90
3086;DHT22;52812;48.960;9.108;2023-12-04T00:29:42;-4.80;99.90
3086;DHT22;52812;48.960;9.108;2023-12-04T00:32:07;-4.80;99.90
3086;DHT22;52812;48.960;9.108;2023-12-04T00:34:33;-4.70;99.90
3086;DHT22;52812;48.960;9.108;2023-12-04T00:36:58;-4.70;99.90
3086;DHT22;52812;48.960;9.108;2023-12-04T00:39:24;-4.70;99.90
3086;DHT22;52812;48.960;9.108;2023-12-04T00:41:49;-4.60;99.90
3086;DHT22;52812;48.960;9.108;2023-12-04T00:44:15;-4.60;99.90
3086;DHT22;52812;48.960;9.108;2023-12-04T00:46:40;-4.60;99.90
3086;DHT22;52812;48.960;9.108;2023-12-04T00:49:06;-4.50;99.90
3086;DHT22;52812;48.960;9.108;2023-12-04T00:51:38;-4.50;99.90
3086;DHT22;52812;48.960;9.108;2023-12-04T00:54:04;-4.50;99.90
3086;DHT22;52812;48.960;9.108;2023-12-04T00:56:29;-4.40;99.90
3086;DHT22;52812;48.960;9.108;2023-12-04T00:58:55;-4.40;99.90
3086;DHT22;52812;48.960;9.108;2023-12-04T01:01:20;-4.40;99.90
3086;DHT22;52812;48.960;9.108;2023-12-04T01:03:46;-4.40;99.90
3086;DHT22;52812;48.960;9.108;2023-12-04T01:06:23;-4.40;99.90
3086;DHT22;52812;48.960;9.108;2023-12-04T01:08:49;-4.30;99.90
3086;DHT22;52812;48.960;9.108;2023-12-04T01:11:16;-4.40;99.90
3086;DHT22;52812;48.960;9.108;2023-12-04T01:13:42;-4.40;99.90
3086;DHT22;52812;48.960;9.108;2023-12-04T01:16:08;-4.40;99.90
3086;DHT22;52812;48.960;9.108;2023-12-04T01:18:34;-4.40;99.90
3086;DHT22;52812;48.960;9.108;2023-12-04T01:21:00;-4.50;99.90
3086;DHT22;52812;48.960;9.108;2023-12-04T01:23:25;-4.50;99.90
3086;DHT22;52812;48.960;9.108;2023-12-04T01:25:51;-4.60;99.90
3086;DHT22;52812;48.960;9.108;2023-12-04T01:28:16;-4.60;99.90
3086;DHT22;52812;48.960;9.108;2023-12-04T01:30:42;-4.50;99.90
3086;DHT22;52812;48.960;9.108;2023-12-04T01:33:07;-4.50;99.90
3086;DHT22;52812;48.960;9.108;2023-12-04T01:35:33;-4.50;99.90
3086;DHT22;52812;48.960;9.108;2023-12-04T01:37:59;-4.50;99.90
3086;DHT22;52812;48.960;9.108;2023-12-04T01:40:26;-4.50;99.90
3086;DHT22;52812;48.960;9.108;2023-12-04T01:42:51;-4.50;99.90
3086;DHT22;52812;48.960;9.108;2023-12-04T01:45:17;-4.60;99.90
3086;DHT22;52812;48.960;9.108;2023-12-04T01:47:43;-4.60;99.90
3086;DHT22;52812;48.960;9.108;2023-12-04T01:50:09;-4.60;99.90
3086;DHT22;52812;48.960;9.108;2023-12-04T01:52:35;-4.60;99.90
3086;DHT22;52812;48.960;9.108;2023-12-04T01:55:02;-4.60;99.90
3086;DHT22;52812;48.960;9.108;2023-12-04T01:57:28;-4.60;99.90
3086;DHT22;52812;48.960;9.108;2023-12-04T01:59:54;-4.60;99.90
3086;DHT22;52812;48.960;9.108;2023-12-04T02:02:20;-4.60;99.90
3086;DHT22;52812;48.960;9.108;2023-12-04T02:04:45;-4.60;99.90
3086;DHT22;52812;48.960;9.108;2023-12-04T02:07:11;-4.70;99.90
3086;DHT22;52812;48.960;9.108;2023-12-04T02:09:37;-4.70;99.90
3086;DHT22;52812;48.960;9.108;2023-12-04T02:12:03;-4.70;99.90
3086;DHT22;52812;48.960;9.108;2023-12-04T02:14:29;-4.70;99.90
3086;DHT22;52812;48.960;9.108;2023-12-04T02:16:55;-4.60;99.90
3086;DHT22;52812;48.960;9.108;2023-12-04T02:19:23;-4.60;99.90
3086;DHT22;52812;48.960;9.108;2023-12-04T02:21:50;-4.60;99.90
3086;DHT22;52812;48.960;9.108;2023-12-04T02:24:15;-4.60;99.90
3086;DHT22;52812;48.960;9.108;2023-12-04T02:26:47;-4.60;99.90
3086;DHT22;52812;48.960;9.108;2023-12-04T02:29:23;-4.60;99.90
3086;DHT22;52812;48.960;9.108;2023-12-04T02:31:51;-4.60;99.90
3086;DHT22;52812;48.960;9.108;2023-12-04T02:34:18;-4.50;99.90
3086;DHT22;52812;48.960;9.108;2023-12-04T02:36:45;-4.50;99.90
3086;DHT22;52812;48.960;9.108;2023-12-04T02:39:12;-4.50;99.90
3086;DHT22;52812;48.960;9.108;2023-12-04T02:41:38;-4.60;99.90
3086;DHT22;52812;48.960;9.108;2023-12-04T02:44:03;-4.60;99.90
3086;DHT22;52812;48.960;9.108;2023-12-04T02:46:29;-4.70;99.90
3086;DHT22;52812;48.960;9.108;2023-12-04T02:48:54;-4.80;99.90
3086;DHT22;52812;48.960;9.108;2023-12-04T02:51:20;-4.80;99.90
3086;DHT22;52812;48.960;9.108;2023-12-04T02:53:45;-4.90;99.90
3086;DHT22;52812;48.960;9.108;2023-12-04T02:56:11;-5.00;99.90
3086;DHT22;52812;48.960;9.108;2023-12-04T02:58:36;-5.00;99.90
3086;DHT22;52812;48.960;9.108;2023-12-04T03:01:02;-5.10;99.90
3086;DHT22;52812;48.960;9.108;2023-12-04T03:03:28;-5.10;99.90
3086;DHT22;52812;48.960;9.108;2023-12-04T03:05:53;-5.10;99.90
3086;DHT22;52812;48.960;9.108;2023-12-04T03:08:19;-5.20;99.90
3086;DHT22;52812;48.960;9.108;2023-12-04T03:10:44;-5.20;99.90
3086;DHT22;52812;48.960;9.108;2023-12-04T03:13:10;-5.10;99.90
3086;DHT22;52812;48.960;9.108;2023-12-04T03:15:35;-5.10;99.90
3086;DHT22;52812;48.960;9.108;2023-12-04T03:18:02;-5.10;99.90
3086;DHT22;52812;48.960;9.108;2023-12-04T03:20:27;-5.20;99.90
3086;DHT22;52812;48.960;9.108;2023-12-04T03:22:53;-5.20;99.90
3086;DHT22;52812;48.960;9.108;2023-12-04T03:25:18;-5.20;99.90
3086;DHT22;52812;48.960;9.108;2023-12-04T03:27:44;-5.30;99.90
3086;DHT22;52812;48.960;9.108;2023-12-04T03:30:10;-5.30;99.90
3086;DHT22;52812;48.960;9.108;2023-12-04T03:32:35;-5.20;99.90
3086;DHT22;52812;48.960;9.108;2023-12-04T03:35:01;-5.30;99.90
3086;DHT22;52812;48.960;9.108;2023-12-04T03:37:27;-5.30;99.90
3086;DHT22;52812;48.960;9.108;2023-12-04T03:39:52;-5.20;99.90
3086;DHT22;52812;48.960;9.108;2023-12-04T03:42:18;-5.20;99.90
3086;DHT22;52812;48.960;9.108;2023-12-04T03:44:43;-5.10;99.90
3086;DHT22;52812;48.960;9.108;2023-12-04T03:47:09;-5.00;99.90
3086;DHT22;52812;48.960;9.108;2023-12-04T03:49:34;-5.00;99.90
3086;DHT22;52812;48.960;9.108;2023-12-04T03:52:00;-4.80;99.90
3086;DHT22;52812;48.960;9.108;2023-12-04T03:54:25;-4.90;99.90
3086;DHT22;52812;48.960;9.108;2023-12-04T03:56:51;-4.80;99.90
3086;DHT22;52812;48.960;9.108;2023-12-04T03:59:23;-4.90;99.90
3086;DHT22;52812;48.960;9.108;2023-12-04T04:01:48;-5.00;99.90
3086;DHT22;52812;48.960;9.108;2023-12-04T04:04:14;-4.90;99.90
3086;DHT22;52812;48.960;9.108;2023-12-04T04:06:39;-4.90;99.90
3086;DHT22;52812;48.960;9.108;2023-12-04T04:09:05;-4.90;99.90
3086;DHT22;52812;48.960;9.108;2023-12-04T04:11:31;-4.90;99.90
3086;DHT22;52812;48.960;9.108;2023-12-04T04:13:56;-4.90;99.90
3086;DHT22;52812;48.960;9.108;2023-12-04T04:16:22;-5.00;99.90
3086;DHT22;52812;48.960;9.108;2023-12-04T04:18:47;-5.00;99.90
3086;DHT22;52812;48.960;9.108;2023-12-04T04:21:13;-5.00;99.90
3086;DHT22;52812;48.960;9.108;2023-12-04T04:23:38;-5.10;99.90
3086;DHT22;52812;48.960;9.108;2023-12-04T04:26:04;-5.10;99.90
3086;DHT22;52812;48.960;9.108;2023-12-04T04:28:30;-5.10;99.90
3086;DHT22;52812;48.960;9.108;2023-12-04T04:30:55;-5.10;99.90
3086;DHT22;52812;48.960;9.108;2023-12-04T04:33:21;-5.10;99.90
3086;DHT22;52812;48.960;9.108;2023-12-04T04:35:46;-5.20;99.90
3086;DHT22;52812;48.960;9.108;2023-12-04T04:38:12;-5.10;99.90
3086;DHT22;52812;48.960;9.108;2023-12-04T04:40:37;-5.10;99.90
3086;DHT22;52812;48.960;9.108;2023-12-04T04:43:07;-5.10;99.90
3086;DHT22;52812;48.960;9.108;2023-12-04T04:45:33;-5.10;99.90
3086;DHT22;52812;48.960;9.108;2023-12-04T04:47:58;-5.10;99.90
3086;DHT22;52812;48.960;9.108;2023-12-04T04:50:24;-5.00;99.90
3086;DHT22;52812;48.960;9.108;2023-12-04T04:52:49;-5.00;99.90
3086;DHT22;52812;48.960;9.108;2023-12-04T04:55:15;-5.00;99.90
3086;DHT22;52812;48.960;9.108;2023-12-04T04:57:40;-5.00;99.90
3086;DHT22;52812;48.960;9.108;2023-12-04T05:00:07;-5.00;99.90
3086;DHT22;52812;48.960;9.108;2023-12-04T05:02:33;-4.90;99.90
3086;DHT22;52812;48.960;9.108;2023-12-04T05:05:02;-4.80;99.90
3086;DHT22;52812;48.960;9.108;2023-12-04T05:07:29;-4.70;99.90
3086;DHT22;52812;48.960;9.108;2023-12-04T05:09:54;-4.60;99.90
3086;DHT22;52812;48.960;9.108;2023-12-04T05:12:20;-4.60;99.90
3086;DHT22;52812;48.960;9.108;2023-12-04T05:14:45;-4.60;99.90
3086;DHT22;52812;48.960;9.108;2023-12-04T05:17:11;-4.60;99.90
3086;DHT22;52812;48.960;9.108;2023-12-04T05:19:36;-4.60;99.90
3086;DHT22;52812;48.960;9.108;2023-12-04T05:22:02;-4.60;99.90
3086;DHT22;52812;48.960;9.108;2023-12-04T05:24:28;-4.60;99.90
3086;DHT22;52812;48.960;9.108;2023-12-04T05:26:53;-4.50;99.90
3086;DHT22;52812;48.960;9.108;2023-12-04T05:29:19;-4.50;99.90
3086;DHT22;52812;48.960;9.108;2023-12-04T05:31:44;-4.40;99.90
3086;DHT22;52812;48.960;9.108;2023-12-04T05:34:10;-4.40;99.90
3086;DHT22;52812;48.960;9.108;2023-12-04T05:36:35;-4.40;99.90
3086;DHT22;52812;48.960;9.108;2023-12-04T05:39:01;-4.40;99.90
3086;DHT22;52812;48.960;9.108;2023-12-04T05:41:27;-4.40;99.90
3086;DHT22;52812;48.960;9.108;2023-12-04T05:43:52;-4.30;99.90
3086;DHT22;52812;48.960;9.108;2023-12-04T05:46:18;-4.30;99.90
3086;DHT22;52812;48.960;9.108;2023-12-04T05:48:44;-4.30;99.90
3086;DHT22;52812;48.960;9.108;2023-12-04T05:51:10;-4.30;99.90
3086;DHT22;52812;48.960;9.108;2023-12-04T05:53:36;-4.30;99.90
3086;DHT22;52812;48.960;9.108;2023-12-04T05:56:17;-4.40;99.90
3086;DHT22;52812;48.960;9.108;2023-12-04T05:58:43;-4.40;99.90
3086;DHT22;52812;48.960;9.108;2023-12-04T06:01:09;-4.30;99.90
3086;DHT22;52812;48.960;9.108;2023-12-04T06:03:34;-4.30;99.90
3086;DHT22;52812;48.960;9.108;2023-12-04T06:06:00;-4.30;99.90
3086;DHT22;52812;48.960;9.108;2023-12-04T06:08:26;-4.30;99.90
3086;DHT22;52812;48.960;9.108;2023-12-04T06:10:51;-4.30;99.90
3086;DHT22;52812;48.960;9.108;2023-12-04T06:13:17;-4.20;99.90
3086;DHT22;52812;48.960;9.108;2023-12-04T06:15:42;-4.20;99.90
3086;DHT22;52812;48.960;9.108;2023-12-04T06:18:08;-4.20;99.90
3086;DHT22;52812;48.960;9.108;2023-12-04T06:20:33;-4.20;99.90
3086;DHT22;52812;48.960;9.108;2023-12-04T06:22:59;-4.20;99.90
3086;DHT22;52812;48.960;9.108;2023-12-04T06:25:25;-4.30;99.90
3086;DHT22;52812;48.960;9.108;2023-12-04T06:27:51;-4.30;99.90
3086;DHT22;52812;48.960;9.108;2023-12-04T06:30:17;-4.30;99.90
3086;DHT22;52812;48.960;9.108;2023-12-04T06:32:43;-4.40;99.90
3086;DHT22;52812;48.960;9.108;2023-12-04T06:35:10;-4.40;99.90
3086;DHT22;52812;48.960;9.108;2023-12-04T06:37:38;-4.40;99.90
3086;DHT22;52812;48.960;9.108;2023-12-04T06:40:05;-4.50;99.90
3086;DHT22;52812;48.960;9.108;2023-12-04T06:42:36;-4.50;99.90
3086;DHT22;52812;48.960;9.108;2023-12-04T06:45:02;-4.40;99.90
3086;DHT22;52812;48.960;9.108;2023-12-04T06:47:31;-4.40;99.90
3086;DHT22;52812;48.960;9.108;2023-12-04T06:49:57;-4.30;99.90
3086;DHT22;52812;48.960;9.108;2023-12-04T06:52:22;-4.30;99.90
3086;DHT22;52812;48.960;9.108;2023-12-04T06:54:48;-4.30;99.90
3086;DHT22;52812;48.960;9.108;2023-12-04T06:57:13;-4.30;99.90
3086;DHT22;52812;48.960;9.108;2023-12-04T06:59:41;-4.30;99.90
3086;DHT22;52812;48.960;9.108;2023-12-04T07:02:07;-4.30;99.90
3086;DHT22;52812;48.960;9.108;2023-12-04T07:04:32;-4.00;99.90
3086;DHT22;52812;48.960;9.108;2023-12-04T07:06:58;-4.10;99.90
3086;DHT22;52812;48.960;9.108;2023-12-04T07:09:26;-4.00;99.90
3086;DHT22;52812;48.960;9.108;2023-12-04T07:11:52;-4.00;99.90
3086;DHT22;52812;48.960;9.108;2023-12-04T07:14:18;-3.90;99.90
3086;DHT22;52812;48.960;9.108;2023-12-04T07:16:44;-3.70;99.90
3086;DHT22;52812;48.960;9.108;2023-12-04T07:19:10;-3.70;99.90
3086;DHT22;52812;48.960;9.108;2023-12-04T07:21:37;-3.70;99.90
3086;DHT22;52812;48.960;9.108;2023-12-04T07:24:03;-3.70;99.90
3086;DHT22;52812;48.960;9.108;2023-12-04T07:26:28;-3.70;99.90
3086;DHT22;52812;48.960;9.108;2023-12-04T07:28:54;-3.60;99.90
3086;DHT22;52812;48.960;9.108;2023-12-04T07:31:19;-3.50;99.90
3086;DHT22;52812;48.960;9.108;2023-12-04T07:33:45;-3.60;99.90
3086;DHT22;52812;48.960;9.108;2023-12-04T07:36:11;-3.40;99.90
3086;DHT22;52812;48.960;9.108;2023-12-04T07:38:36;-3.40;99.90
3086;DHT22;52812;48.960;9.108;2023-12-04T07:41:02;-3.40;99.90
3086;DHT22;52812;48.960;9.108;2023-12-04T07:43:28;-3.30;99.90
3086;DHT22;52812;48.960;9.108;2023-12-04T07:45:55;-3.30;99.90
3086;DHT22;52812;48.960;9.108;2023-12-04T07:48:21;-3.20;99.90
3086;DHT22;52812;48.960;9.108;2023-12-04T07:50:47;-3.20;99.90
3086;DHT22;52812;48.960;9.108;2023-12-04T07:53:13;-3.20;99.90
3086;DHT22;52812;48.960;9.108;2023-12-04T07:55:39;-3.10;99.90
3086;DHT22;52812;48.960;9.108;2023-12-04T07:58:04;-3.10;99.90
3086;DHT22;52812;48.960;9.108;2023-12-04T08:00:30;-3.10;99.90
3086;DHT22;52812;48.960;9.108;2023-12-04T08:02:55;-3.00;99.90
3086;DHT22;52812;48.960;9.108;2023-12-04T08:05:21;-2.90;99.90
3086;DHT22;52812;48.960;9.108;2023-12-04T08:07:47;-2.90;99.90
3086;DHT22;52812;48.960;9.108;2023-12-04T08:10:13;-2.80;99.90
3086;DHT22;52812;48.960;9.108;2023-12-04T08:12:39;-2.80;99.90
3086;DHT22;52812;48.960;9.108;2023-12-04T08:15:05;-2.80;99.90
3086;DHT22;52812;48.960;9.108;2023-12-04T08:17:31;-2.80;99.90
3086;DHT22;52812;48.960;9.108;2023-12-04T08:19:57;-2.70;99.90
3086;DHT22;52812;48.960;9.108;2023-12-04T08:22:22;-2.70;99.90
3086;DHT22;52812;48.960;9.108;2023-12-04T08:24:48;-2.70;99.90
3086;DHT22;52812;48.960;9.108;2023-12-04T08:27:13;-2.60;99.90
3086;DHT22;52812;48.960;9.108;2023-12-04T08:29:39;-2.60;99.90
3086;DHT22;52812;48.960;9.108;2023-12-04T08:32:06;-2.60;99.90
3086;DHT22;52812;48.960;9.108;2023-12-04T08:34:31;-2.50;99.90
3086;DHT22;52812;48.960;9.108;2023-12-04T08:36:57;-2.40;99.90
3086;DHT22;52812;48.960;9.108;2023-12-04T08:39:27;-2.30;99.90
3086;DHT22;52812;48.960;9.108;2023-12-04T08:41:56;-2.10;99.90
3086;DHT22;52812;48.960;9.108;2023-12-04T08:44:21;-2.20;99.90
3086;DHT22;52812;48.960;9.108;2023-12-04T08:46:47;-2.10;99.90
3086;DHT22;52812;48.960;9.108;2023-12-04T08:49:12;-2.20;99.90
3086;DHT22;52812;48.960;9.108;2023-12-04T08:51:38;-2.10;99.90
3086;DHT22;52812;48.960;9.108;2023-12-04T08:54:04;-2.10;99.90
3086;DHT22;52812;48.960;9.108;2023-12-04T08:56:30;-2.10;99.90
3086;DHT22;52812;48.960;9.108;2023-12-04T08:58:55;-2.10;99.90
3086;DHT22;52812;48.960;9.108;2023-12-04T09:01:22;-2.10;99.90
3086;DHT22;52812;48.960;9.108;2023-12-04T09:03:48;-1.90;99.90
3086;DHT22;52812;48.960;9.108;2023-12-04T09:06:14;-1.90;99.90
3086;DHT22;52812;48.960;9.108;2023-12-04T09:08:41;-1.90;99.90
3086;DHT22;52812;48.960;9.108;2023-12-04T09:11:06;-1.80;99.90
3086;DHT22;52812;48.960;9.108;2023-12-04T09:13:32;-1.80;99.90
3086;DHT22;52812;48.960;9.108;2023-12-04T09:15:59;-1.80;99.90
3086;DHT22;52812;48.960;9.108;2023-12-04T09:18:25;-1.80;99.90
3086;DHT22;52812;48.960;9.108;2023-12-04T09:20:50;-1.70;99.90
3086;DHT22;52812;48.960;9.108;2023-12-04T09:23:16;-1.80;99.90
3086;DHT22;52812;48.960;9.108;2023-12-04T09:25:41;-1.80;99.90
3086;DHT22;52812;48.960;9.108;2023-12-04T09:28:07;-1.80;99.90
3086;DHT22;52812;48.960;9.108;2023-12-04T09:30:34;-1.80;99.90
3086;DHT22;52812;48.960;9.108;2023-12-04T09:33:00;-1.70;99.90
3086;DHT22;52812;48.960;9.108;2023-12-04T09:35:26;-1.70;99.90
3086;DHT22;52812;48.960;9.108;2023-12-04T09:37:52;-1.70;99.90
3086;DHT22;52812;48.960;9.108;2023-12-04T09:40:17;-1.70;99.90
3086;DHT22;52812;48.960;9.108;2023-12-04T09:42:43;-1.70;99.90
3086;DHT22;52812;48.960;9.108;2023-12-04T09:45:09;-1.70;99.90
3086;DHT22;52812;48.960;9.108;2023-12-04T09:47:34;-1.70;99.90
3086;DHT22;52812;48.960;9.108;2023-12-04T09:50:00;-1.70;99.90
3086;DHT22;52812;48.960;9.108;2023-12-04T09:52:27;-1.60;99.90
3086;DHT22;52812;48.960;9.108;2023-12-04T09:54:53;-1.50;99.90
3086;DHT22;52812;48.960;9.108;2023-12-04T09:57:19;-1.50;99.90
3086;DHT22;52812;48.960;9.108;2023-12-04T09:59:45;-1.40;99.90
3086;DHT22;52812;48.960;9.108;2023-12-04T10:02:12;-1.40;99.90
3086;DHT22;52812;48.960;9.108;2023-12-04T10:04:37;-1.30;99.90
3086;DHT22;52812;48.960;9.108;2023-12-04T10:07:03;-1.30;99.90
3086;DHT22;52812;48.960;9.108;2023-12-04T10:09:30;-1.20;99.90
3086;DHT22;52812;48.960;9.108;2023-12-04T10:11:59;-1.20;99.90
3086;DHT22;52812;48.960;9.108;2023-12-04T10:14:25;-1.20;99.90
3086;DHT22;52812;48.960;9.108;2023-12-04T10:16:51;-1.20;99.90
3086;DHT22;52812;48.960;9.108;2023-12-04T10:19:28;-1.10;99.90
3086;DHT22;52812;48.960;9.108;2023-12-04T10:21:58;-1.10;99.90
3086;DHT22;52812;48.960;9.108;2023-12-04T10:24:36;-1.20;99.90
3086;DHT22;52812;48.960;9.108;2023-12-04T10:27:03;-1.20;99.90
3086;DHT22;52812;48.960;9.108;2023-12-04T10:29:46;-1.10;99.90
3086;DHT22;52812;48.960;9.108;2023-12-04T10:32:13;-1.10;99.90
3086;DHT22;52812;48.960;9.108;2023-12-04T10:34:41;-1.10;99.90
3086;DHT22;52812;48.960;9.108;2023-12-04T10:37:08;-1.00;99.90
3086;DHT22;52812;48.960;9.108;2023-12-04T10:39:49;-0.90;99.90
3086;DHT22;52812;48.960;9.108;2023-12-04T10:42:33;-0.80;99.90
3086;DHT22;52812;48.960;9.108;2023-12-04T10:44:59;-0.70;99.90
3086;DHT22;52812;48.960;9.108;2023-12-04T10:47:29;-0.70;99.90
3086;DHT22;52812;48.960;9.108;2023-12-04T10:49:56;-0.70;99.90
3086;DHT22;52812;48.960;9.108;2023-12-04T10:52:22;-0.80;99.90
3086;DHT22;52812;48.960;9.108;2023-12-04T10:54:48;-0.80;99.90
3086;DHT22;52812;48.960;9.108;2023-12-04T10:57:22;-0.80;99.90
3086;DHT22;52812;48.960;9.108;2023-12-04T10:59:51;-0.80;99.90
3086;DHT22;52812;48.960;9.108;2023-12-04T11:02:21;-0.90;99.90
3086;DHT22;52812;48.960;9.108;2023-12-04T11:04:55;-0.80;99.90
3086;DHT22;52812;48.960;9.108;2023-12-04T11:07:24;-0.80;99.90
3086;DHT22;52812;48.960;9.108;2023-12-04T11:09:52;-0.70;99.90
3086;DHT22;52812;48.960;9.108;2023-12-04T11:12:21;-0.70;99.90
3086;DHT22;52812;48.960;9.108;2023-12-04T11:14:54;-0.70;99.90
3086;DHT22;52812;48.960;9.108;2023-12-04T11:17:21;-0.70;99.90
3086;DHT22;52812;48.960;9.108;2023-12-04T11:19:59;-0.80;99.90
3086;DHT22;52812;48.960;9.108;2023-12-04T11:22:27;-0.90;99.90
3086;DHT22;52812;48.960;9.108;2023-12-04T11:24:54;-0.90;99.90
3086;DHT22;52812;48.960;9.108;2023-12-04T11:27:21;-0.90;99.90
3086;DHT22;52812;48.960;9.108;2023-12-04T11:29:48;-0.90;99.90
3086;DHT22;52812;48.960;9.108;2023-12-04T11:32:17;-0.90;99.90
3086;DHT22;52812;48.960;9.108;2023-12-04T11:35:12;-0.90;99.90
3086;DHT22;52812;48.960;9.108;2023-12-04T11:37:39;-0.90;99.90
3086;DHT22;52812;48.960;9.108;2023-12-04T11:40:06;-0.90;99.90
3086;DHT22;52812;48.960;9.108;2023-12-04T11:42:33;-0.90;99.90
3086;DHT22;52812;48.960;9.108;2023-12-04T11:44:58;-0.90;99.90
3086;DHT22;52812;48.960;9.108;2023-12-04T11:47:24;-0.90;99.90
3086;DHT22;52812;48.960;9.108;2023-12-04T11:49:50;-0.80;99.90
3086;DHT22;52812;48.960;9.108;2023-12-04T11:52:15;-0.70;99.90
3086;DHT22;52812;48.960;9.108;2023-12-04T11:55:20;-0.70;99.90
3086;DHT22;52812;48.960;9.108;2023-12-04T11:57:50;-0.70;99.90
3086;DHT22;52812;48.960;9.108;2023-12-04T12:03:01;-0.60;99.90
3086;DHT22;52812;48.960;9.108;2023-12-04T12:05:32;-0.60;99.90
3086;DHT22;52812;48.960;9.108;2023-12-04T12:08:01;-0.60;99.90
3086;DHT22;52812;48.960;9.108;2023-12-04T12:10:30;-0.70;99.90
3086;DHT22;52812;48.960;9.108;2023-12-04T12:12:56;-0.70;99.90
3086;DHT22;52812;48.960;9.108;2023-12-04T12:15:22;-0.80;99.90
3086;DHT22;52812;48.960;9.108;2023-12-04T12:17:49;-0.70;99.90
3086;DHT22;52812;48.960;9.108;2023-12-04T12:20:16;-0.70;99.90
3086;DHT22;52812;48.960;9.108;2023-12-04T12:22:41;-0.60;99.90
3086;DHT22;52812;48.960;9.108;2023-12-04T12:25:15;-0.60;99.90
3086;DHT22;52812;48.960;9.108;2023-12-04T12:27:43;-0.60;99.90
3086;DHT22;52812;48.960;9.108;2023-12-04T12:30:10;-0.60;99.90
3086;DHT22;52812;48.960;9.108;2023-12-04T12:32:36;-0.60;99.90
3086;DHT22;52812;48.960;9.108;2023-12-04T12:35:02;-0.60;99.90
3086;DHT22;52812;48.960;9.108;2023-12-04T12:37:28;-0.60;99.90
3086;DHT22;52812;48.960;9.108;2023-12-04T12:39:54;-0.60;99.90
3086;DHT22;52812;48.960;9.108;2023-12-04T12:42:25;-0.50;99.90
3086;DHT22;52812;48.960;9.108;2023-12-04T12:44:52;-0.60;99.90
3086;DHT22;52812;48.960;9.108;2023-12-04T12:47:18;-0.60;99.90
3086;DHT22;52812;48.960;9.108;2023-12-04T12:49:44;-0.50;99.90
3086;DHT22;52812;48.960;9.108;2023-12-04T12:52:10;-0.40;99.90
3086;DHT22;52812;48.960;9.108;2023-12-04T12:54:37;-0.50;99.90
3086;DHT22;52812;48.960;9.108;2023-12-04T12:57:03;-0.50;99.90
3086;DHT22;52812;48.960;9.108;2023-12-04T12:59:29;-0.50;99.90
3086;DHT22;52812;48.960;9.108;2023-12-04T13:01:54;-0.50;99.90
3086;DHT22;52812;48.960;9.108;2023-12-04T13:04:22;-0.40;99.90
3086;DHT22;52812;48.960;9.108;2023-12-04T13:06:47;-0.30;99.90
3086;DHT22;52812;48.960;9.108;2023-12-04T13:09:13;-0.30;99.90
3086;DHT22;52812;48.960;9.108;2023-12-04T13:11:47;-0.20;99.90
3086;DHT22;52812;48.960;9.108;2023-12-04T13:14:13;-0.20;99.90
3086;DHT22;52812;48.960;9.108;2023-12-04T13:16:39;-0.20;99.90
3086;DHT22;52812;48.960;9.108;2023-12-04T13:19:05;-0.30;99.90
3086;DHT22;52812;48.960;9.108;2023-12-04T13:21:30;-0.30;99.90
3086;DHT22;52812;48.960;9.108;2023-12-04T13:23:56;-0.20;99.90
3086;DHT22;52812;48.960;9.108;2023-12-04T13:26:22;-0.30;99.90
3086;DHT22;52812;48.960;9.108;2023-12-04T13:28:47;-0.20;99.90
3086;DHT22;52812;48.960;9.108;2023-12-04T13:31:13;-0.30;99.90
3086;DHT22;52812;48.960;9.108;2023-12-04T13:33:39;-0.30;99.90
3086;DHT22;52812;48.960;9.108;2023-12-04T13:36:05;-0.30;99.90
3086;DHT22;52812;48.960;9.108;2023-12-04T13:38:30;-0.30;99.90
3086;DHT22;52812;48.960;9.108;2023-12-04T13:40:56;-0.30;99.90
3086;DHT22;52812;48.960;9.108;2023-12-04T13:43:33;-0.20;99.90
3086;DHT22;52812;48.960;9.108;2023-12-04T13:46:17;-0.20;99.90
3086;DHT22;52812;48.960;9.108;2023-12-04T13:48:43;-0.20;99.90
3086;DHT22;52812;48.960;9.108;2023-12-04T13:51:10;-0.20;99.90
3086;DHT22;52812;48.960;9.108;2023-12-04T13:53:37;-0.30;99.90
3086;DHT22;52812;48.960;9.108;2023-12-04T13:56:15;-0.30;99.90
3086;DHT22;52812;48.960;9.108;2023-12-04T13:58:49;-0.30;99.90
3086;DHT22;52812;48.960;9.108;2023-12-04T14:01:23;-0.20;99.90
3086;DHT22;52812;48.960;9.108;2023-12-04T14:03:50;-0.30;99.90
3086;DHT22;52812;48.960;9.108;2023-12-04T14:06:16;-0.30;99.90
3086;DHT22;52812;48.960;9.108;2023-12-04T14:08:42;-0.20;99.90
3086;DHT22;52812;48.960;9.108;2023-12-04T14:11:07;-0.20;99.90
3086;DHT22;52812;48.960;9.108;2023-12-04T14:13:35;-0.30;99.90
3086;DHT22;52812;48.960;9.108;2023-12-04T14:16:01;-0.30;99.90
3086;DHT22;52812;48.960;9.108;2023-12-04T14:18:29;-0.30;99.90
3086;DHT22;52812;48.960;9.108;2023-12-04T14:20:56;-0.20;99.90
3086;DHT22;52812;48.960;9.108;2023-12-04T14:23:21;-0.20;99.90
3086;DHT22;52812;48.960;9.108;2023-12-04T14:25:47;-0.20;99.90
3086;DHT22;52812;48.960;9.108;2023-12-04T14:28:13;-0.20;99.90
3086;DHT22;52812;48.960;9.108;2023-12-04T14:30:38;-0.20;99.90
3086;DHT22;52812;48.960;9.108;2023-12-04T14:33:04;-0.20;99.90
3086;DHT22;52812;48.960;9.108;2023-12-04T14:35:29;-0.30;99.90
3086;DHT22;52812;48.960;9.108;2023-12-04T14:37:55;-0.30;99.90
3086;DHT22;52812;48.960;9.108;2023-12-04T14:40:21;-0.30;99.90
3086;DHT22;52812;48.960;9.108;2023-12-04T14:42:46;-0.20;99.90
3086;DHT22;52812;48.960;9.108;2023-12-04T14:45:13;-0.10;99.90
3086;DHT22;52812;48.960;9.108;2023-12-04T14:47:39;-0.10;99.90
3086;DHT22;52812;48.960;9.108;2023-12-04T14:50:05;-0.20;99.90
3086;DHT22;52812;48.960;9.108;2023-12-04T14:52:32;-0.20;99.90
3086;DHT22;52812;48.960;9.108;2023-12-04T14:54:59;-0.10;99.90
3086;DHT22;52812;48.960;9.108;2023-12-04T14:57:34;-0.10;99.90
3086;DHT22;52812;48.960;9.108;2023-12-04T15:00:09;-0.10;99.90
3086;DHT22;52812;48.960;9.108;2023-12-04T15:02:36;-0.10;99.90
3086;DHT22;52812;48.960;9.108;2023-12-04T15:05:10;-0.10;99.90
3086;DHT22;52812;48.960;9.108;2023-12-04T15:07:55;-0.10;99.90
3086;DHT22;52812;48.960;9.108;2023-12-04T15:10:55;-0.10;99.90
3086;DHT22;52812;48.960;9.108;2023-12-04T15:13:41;-0.20;99.90
3086;DHT22;52812;48.960;9.108;2023-12-04T15:16:34;-0.20;99.90
3086;DHT22;52812;48.960;9.108;2023-12-04T15:19:12;-0.10;99.90
3086;DHT22;52812;48.960;9.108;2023-12-04T15:21:38;-0.20;99.90
3086;DHT22;52812;48.960;9.108;2023-12-04T15:24:05;-0.20;99.90
3086;DHT22;52812;48.960;9.108;2023-12-04T15:26:32;-0.20;99.90
3086;DHT22;52812;48.960;9.108;2023-12-04T15:28:58;-0.10;99.90
3086;DHT22;52812;48.960;9.108;2023-12-04T15:31:23;-0.10;99.90
3086;DHT22;52812;48.960;9.108;2023-12-04T15:33:49;-0.10;99.90
3086;DHT22;52812;48.960;9.108;2023-12-04T15:36:14;0.00;99.90
3086;DHT22;52812;48.960;9.108;2023-12-04T15:38:40;-0.10;99.90
3086;DHT22;52812;48.960;9.108;2023-12-04T15:41:06;-0.10;99.90
3086;DHT22;52812;48.960;9.108;2023-12-04T15:43:32;-0.10;99.90
3086;DHT22;52812;48.960;9.108;2023-12-04T15:45:58;0.00;99.90
3086;DHT22;52812;48.960;9.108;2023-12-04T15:48:23;0.00;99.90